Main page
METAR-TAF:

METAR-TAF

Airports :

Saarbrücken Airport

Saarbrücken, Germany

latitude: 49-13N, longitude: 007-07E, elevation: 322 m

Current weather observation

The report was made 17 minutes ago, at 06:50 UTC
Wind 5 kt from the Southwest
Temperature 2°C
Humidity 80%
Pressure 1016 hPa
Visibility 10 km or more
Few clouds at a height of 2800 ft

METAR: EDDR 030650Z 22005KT 9999 FEW028 02/M01 Q1016 NOSIG

Time: 09:07 (07:07 UTC)

Forecast

The report was made 2 hours and 7 minutes ago, at 05:00 UTC
Forecast valid from 03 at 06 UTC to 04 at 06 UTC
Wind 6 kt from the South/Southwest
Visibility 10 km or more
Broken clouds at a height of 3000 ft
Becoming
from 03 at 12 UTC to 03 at 15 UTC
Wind 7 kt from the West
Becoming
from 03 at 18 UTC to 03 at 21 UTC
Wind 3 kt from variable directions

TAF: EDDR 030500Z 0306/0406 21006KT 9999 BKN030 BECMG 0312/0315 28007KT BECMG 0318/0321 VRB03KT

Weather observations and forecasts of more than 4000 airports (METAR and TAF reports).

The available stations are represented by yellow and red dots on the map.

Hover mouse over dot to see the name of the station.

Then click to see weather observations and forecasts.

To change the map : click on the green buttons with a black cross to zoom in, on the green button with a dash to zoom out, or on the green arrows for adjacent maps.


METAR-TAF: